sensor_id;sensor_type;location;lat;lon;timestamp;temperature;humidity
33803;DHT22;20110;53.120;5.786;2023-08-31T00:00:42;10.10;99.90
33803;DHT22;20110;53.120;5.786;2023-08-31T00:03:12;10.00;99.90
33803;DHT22;20110;53.120;5.786;2023-08-31T00:05:41;10.00;99.90
33803;DHT22;20110;53.120;5.786;2023-08-31T00:08:08;10.00;99.90
33803;DHT22;20110;53.120;5.786;2023-08-31T00:10:35;9.90;99.90
33803;DHT22;20110;53.120;5.786;2023-08-31T00:13:02;9.90;99.90
33803;DHT22;20110;53.120;5.786;2023-08-31T00:15:28;9.90;99.90
33803;DHT22;20110;53.120;5.786;2023-08-31T00:17:55;10.00;99.90
33803;DHT22;20110;53.120;5.786;2023-08-31T00:20:20;10.00;99.90
33803;DHT22;20110;53.120;5.786;2023-08-31T00:22:47;10.00;99.90
33803;DHT22;20110;53.120;5.786;2023-08-31T00:25:13;10.00;99.90
33803;DHT22;20110;53.120;5.786;2023-08-31T00:27:40;10.00;99.90
33803;DHT22;20110;53.120;5.786;2023-08-31T00:30:10;10.00;99.90
33803;DHT22;20110;53.120;5.786;2023-08-31T00:32:39;9.90;99.90
33803;DHT22;20110;53.120;5.786;2023-08-31T00:35:09;9.90;99.90
33803;DHT22;20110;53.120;5.786;2023-08-31T00:37:35;9.90;99.90
33803;DHT22;20110;53.120;5.786;2023-08-31T00:40:01;9.90;99.90
33803;DHT22;20110;53.120;5.786;2023-08-31T00:42:30;9.90;99.90
33803;DHT22;20110;53.120;5.786;2023-08-31T00:44:56;9.90;99.90
33803;DHT22;20110;53.120;5.786;2023-08-31T00:47:22;9.90;99.90
33803;DHT22;20110;53.120;5.786;2023-08-31T00:49:48;9.90;99.90
33803;DHT22;20110;53.120;5.786;2023-08-31T00:52:15;9.90;99.90
33803;DHT22;20110;53.120;5.786;2023-08-31T00:54:42;9.90;99.90
33803;DHT22;20110;53.120;5.786;2023-08-31T00:57:08;9.90;99.90
33803;DHT22;20110;53.120;5.786;2023-08-31T00:59:35;9.90;99.90
33803;DHT22;20110;53.120;5.786;2023-08-31T01:02:18;9.90;99.90
33803;DHT22;20110;53.120;5.786;2023-08-31T01:05:13;10.00;99.90
33803;DHT22;20110;53.120;5.786;2023-08-31T01:07:59;10.10;99.90
33803;DHT22;20110;53.120;5.786;2023-08-31T01:10:55;10.10;99.90
33803;DHT22;20110;53.120;5.786;2023-08-31T01:13:34;10.10;99.90
33803;DHT22;20110;53.120;5.786;2023-08-31T01:16:05;10.10;99.90
33803;DHT22;20110;53.120;5.786;2023-08-31T01:18:34;10.20;99.90
33803;DHT22;20110;53.120;5.786;2023-08-31T01:21:27;10.20;99.90
33803;DHT22;20110;53.120;5.786;2023-08-31T01:24:01;10.30;99.90
33803;DHT22;20110;53.120;5.786;2023-08-31T01:26:29;10.30;99.90
33803;DHT22;20110;53.120;5.786;2023-08-31T01:28:56;10.40;99.90
33803;DHT22;20110;53.120;5.786;2023-08-31T01:31:22;10.30;99.90
33803;DHT22;20110;53.120;5.786;2023-08-31T01:33:48;10.30;99.90
33803;DHT22;20110;53.120;5.786;2023-08-31T01:36:29;10.20;99.90
33803;DHT22;20110;53.120;5.786;2023-08-31T01:39:20;10.20;99.90
33803;DHT22;20110;53.120;5.786;2023-08-31T01:41:56;10.20;99.90
33803;DHT22;20110;53.120;5.786;2023-08-31T01:44:25;10.10;99.90
33803;DHT22;20110;53.120;5.786;2023-08-31T01:46:53;10.10;99.90
33803;DHT22;20110;53.120;5.786;2023-08-31T01:49:20;10.10;99.90
33803;DHT22;20110;53.120;5.786;2023-08-31T01:51:46;10.10;99.90
33803;DHT22;20110;53.120;5.786;2023-08-31T01:54:12;10.10;99.90
33803;DHT22;20110;53.120;5.786;2023-08-31T01:56:38;10.00;99.90
33803;DHT22;20110;53.120;5.786;2023-08-31T01:59:04;10.10;99.90
33803;DHT22;20110;53.120;5.786;2023-08-31T02:01:32;10.10;99.90
33803;DHT22;20110;53.120;5.786;2023-08-31T02:03:58;10.20;99.90
33803;DHT22;20110;53.120;5.786;2023-08-31T02:06:24;10.20;99.90
33803;DHT22;20110;53.120;5.786;2023-08-31T02:08:50;10.30;99.90
33803;DHT22;20110;53.120;5.786;2023-08-31T02:11:16;10.30;99.90
33803;DHT22;20110;53.120;5.786;2023-08-31T02:13:41;10.40;99.90
33803;DHT22;20110;53.120;5.786;2023-08-31T02:16:07;10.40;99.90
33803;DHT22;20110;53.120;5.786;2023-08-31T02:18:33;10.40;99.90
33803;DHT22;20110;53.120;5.786;2023-08-31T02:20:59;10.40;99.90
33803;DHT22;20110;53.120;5.786;2023-08-31T02:23:25;10.40;99.90
33803;DHT22;20110;53.120;5.786;2023-08-31T02:25:50;10.40;99.90
33803;DHT22;20110;53.120;5.786;2023-08-31T02:28:16;10.40;99.90
33803;DHT22;20110;53.120;5.786;2023-08-31T02:30:45;10.40;99.90
33803;DHT22;20110;53.120;5.786;2023-08-31T02:33:11;10.40;99.90
33803;DHT22;20110;53.120;5.786;2023-08-31T02:35:37;10.50;99.90
33803;DHT22;20110;53.120;5.786;2023-08-31T02:38:03;10.50;99.90
33803;DHT22;20110;53.120;5.786;2023-08-31T02:40:29;10.50;99.90
33803;DHT22;20110;53.120;5.786;2023-08-31T02:42:54;10.60;99.90
33803;DHT22;20110;53.120;5.786;2023-08-31T02:45:20;10.70;99.90
33803;DHT22;20110;53.120;5.786;2023-08-31T02:47:46;10.80;99.90
33803;DHT22;20110;53.120;5.786;2023-08-31T02:50:12;10.80;99.90
33803;DHT22;20110;53.120;5.786;2023-08-31T02:52:40;11.00;99.90
33803;DHT22;20110;53.120;5.786;2023-08-31T02:55:06;11.00;99.90
33803;DHT22;20110;53.120;5.786;2023-08-31T02:57:32;11.10;99.90
33803;DHT22;20110;53.120;5.786;2023-08-31T02:59:58;11.10;99.90
33803;DHT22;20110;53.120;5.786;2023-08-31T03:02:24;11.10;99.90
33803;DHT22;20110;53.120;5.786;2023-08-31T03:04:50;11.10;99.90
33803;DHT22;20110;53.120;5.786;2023-08-31T03:07:16;11.10;99.90
33803;DHT22;20110;53.120;5.786;2023-08-31T03:09:42;11.10;99.90
33803;DHT22;20110;53.120;5.786;2023-08-31T03:12:07;11.00;99.90
33803;DHT22;20110;53.120;5.786;2023-08-31T03:14:33;10.90;99.90
33803;DHT22;20110;53.120;5.786;2023-08-31T03:16:59;10.90;99.90
33803;DHT22;20110;53.120;5.786;2023-08-31T03:19:25;10.80;99.90
33803;DHT22;20110;53.120;5.786;2023-08-31T03:21:51;10.70;99.90
33803;DHT22;20110;53.120;5.786;2023-08-31T03:24:16;10.70;99.90
33803;DHT22;20110;53.120;5.786;2023-08-31T03:26:42;10.60;99.90
33803;DHT22;20110;53.120;5.786;2023-08-31T03:29:08;10.50;99.90
33803;DHT22;20110;53.120;5.786;2023-08-31T03:31:34;10.50;99.90
33803;DHT22;20110;53.120;5.786;2023-08-31T03:34:00;10.40;99.90
33803;DHT22;20110;53.120;5.786;2023-08-31T03:36:25;10.20;99.90
33803;DHT22;20110;53.120;5.786;2023-08-31T03:38:51;10.20;99.90
33803;DHT22;20110;53.120;5.786;2023-08-31T03:41:17;10.10;99.90
33803;DHT22;20110;53.120;5.786;2023-08-31T03:43:43;10.10;99.90
33803;DHT22;20110;53.120;5.786;2023-08-31T03:46:08;10.10;99.90
33803;DHT22;20110;53.120;5.786;2023-08-31T03:48:34;10.00;99.90
33803;DHT22;20110;53.120;5.786;2023-08-31T03:51:00;9.90;99.90
33803;DHT22;20110;53.120;5.786;2023-08-31T03:53:26;9.90;99.90
33803;DHT22;20110;53.120;5.786;2023-08-31T03:55:52;9.80;99.90
33803;DHT22;20110;53.120;5.786;2023-08-31T03:58:17;9.70;99.90
33803;DHT22;20110;53.120;5.786;2023-08-31T04:00:43;9.70;99.90
33803;DHT22;20110;53.120;5.786;2023-08-31T04:03:09;9.60;99.90
33803;DHT22;20110;53.120;5.786;2023-08-31T04:05:36;9.60;99.90
33803;DHT22;20110;53.120;5.786;2023-08-31T04:08:02;9.60;99.90
33803;DHT22;20110;53.120;5.786;2023-08-31T04:10:28;9.50;99.90
33803;DHT22;20110;53.120;5.786;2023-08-31T04:12:55;9.50;99.90
33803;DHT22;20110;53.120;5.786;2023-08-31T04:15:21;9.40;99.90
33803;DHT22;20110;53.120;5.786;2023-08-31T04:17:47;9.40;99.90
33803;DHT22;20110;53.120;5.786;2023-08-31T04:20:15;9.40;99.90
33803;DHT22;20110;53.120;5.786;2023-08-31T04:22:41;9.40;99.90
33803;DHT22;20110;53.120;5.786;2023-08-31T04:25:07;9.30;99.90
33803;DHT22;20110;53.120;5.786;2023-08-31T04:27:33;9.30;99.90
33803;DHT22;20110;53.120;5.786;2023-08-31T04:30:00;9.30;99.90
33803;DHT22;20110;53.120;5.786;2023-08-31T04:32:26;9.20;99.90
33803;DHT22;20110;53.120;5.786;2023-08-31T04:34:53;9.20;99.90
33803;DHT22;20110;53.120;5.786;2023-08-31T04:37:19;9.10;99.90
33803;DHT22;20110;53.120;5.786;2023-08-31T04:39:46;9.10;99.90
33803;DHT22;20110;53.120;5.786;2023-08-31T04:42:12;9.00;99.90
33803;DHT22;20110;53.120;5.786;2023-08-31T04:44:38;9.00;99.90
33803;DHT22;20110;53.120;5.786;2023-08-31T04:47:04;9.00;99.90
33803;DHT22;20110;53.120;5.786;2023-08-31T04:49:30;9.00;99.90
33803;DHT22;20110;53.120;5.786;2023-08-31T04:51:56;9.00;99.90
33803;DHT22;20110;53.120;5.786;2023-08-31T04:54:22;9.00;99.90
33803;DHT22;20110;53.120;5.786;2023-08-31T04:56:47;9.00;99.90
33803;DHT22;20110;53.120;5.786;2023-08-31T04:59:13;9.00;99.90
33803;DHT22;20110;53.120;5.786;2023-08-31T05:01:39;9.00;99.90
33803;DHT22;20110;53.120;5.786;2023-08-31T05:04:05;9.00;99.90
33803;DHT22;20110;53.120;5.786;2023-08-31T05:06:31;9.00;99.90
33803;DHT22;20110;53.120;5.786;2023-08-31T05:08:57;8.90;99.90
33803;DHT22;20110;53.120;5.786;2023-08-31T05:11:23;8.90;99.90
33803;DHT22;20110;53.120;5.786;2023-08-31T05:13:49;8.90;99.90
33803;DHT22;20110;53.120;5.786;2023-08-31T05:16:15;9.00;99.90
33803;DHT22;20110;53.120;5.786;2023-08-31T05:18:41;9.00;99.90
33803;DHT22;20110;53.120;5.786;2023-08-31T05:21:07;9.00;99.90
33803;DHT22;20110;53.120;5.786;2023-08-31T05:23:33;9.10;99.90
33803;DHT22;20110;53.120;5.786;2023-08-31T05:25:59;9.20;99.90
33803;DHT22;20110;53.120;5.786;2023-08-31T05:28:27;9.30;99.90
33803;DHT22;20110;53.120;5.786;2023-08-31T05:30:55;9.40;99.90
33803;DHT22;20110;53.120;5.786;2023-08-31T05:33:22;9.40;99.90
33803;DHT22;20110;53.120;5.786;2023-08-31T05:35:51;9.50;99.90
33803;DHT22;20110;53.120;5.786;2023-08-31T05:38:17;9.50;99.90
33803;DHT22;20110;53.120;5.786;2023-08-31T05:40:42;9.50;99.90
33803;DHT22;20110;53.120;5.786;2023-08-31T05:43:14;9.60;99.90
33803;DHT22;20110;53.120;5.786;2023-08-31T05:45:41;9.70;99.90
33803;DHT22;20110;53.120;5.786;2023-08-31T05:48:08;9.70;99.90
33803;DHT22;20110;53.120;5.786;2023-08-31T05:50:34;9.80;99.90
33803;DHT22;20110;53.120;5.786;2023-08-31T05:53:02;9.80;99.90
33803;DHT22;20110;53.120;5.786;2023-08-31T05:55:28;9.80;99.90
33803;DHT22;20110;53.120;5.786;2023-08-31T05:57:54;9.90;99.90
33803;DHT22;20110;53.120;5.786;2023-08-31T06:00:20;10.00;99.90
33803;DHT22;20110;53.120;5.786;2023-08-31T06:02:46;10.10;99.90
33803;DHT22;20110;53.120;5.786;2023-08-31T06:05:11;10.40;99.90
33803;DHT22;20110;53.120;5.786;2023-08-31T06:07:38;10.70;99.90
33803;DHT22;20110;53.120;5.786;2023-08-31T06:10:05;10.90;99.90
33803;DHT22;20110;53.120;5.786;2023-08-31T06:12:31;11.00;99.90
33803;DHT22;20110;53.120;5.786;2023-08-31T06:14:58;11.10;99.90
33803;DHT22;20110;53.120;5.786;2023-08-31T06:17:24;11.20;99.90
33803;DHT22;20110;53.120;5.786;2023-08-31T06:19:49;11.30;99.90
33803;DHT22;20110;53.120;5.786;2023-08-31T06:22:15;11.30;99.90
33803;DHT22;20110;53.120;5.786;2023-08-31T06:24:41;11.30;99.90
33803;DHT22;20110;53.120;5.786;2023-08-31T06:27:07;11.40;99.90
33803;DHT22;20110;53.120;5.786;2023-08-31T06:29:33;11.40;99.90
33803;DHT22;20110;53.120;5.786;2023-08-31T06:31:59;11.50;99.90
33803;DHT22;20110;53.120;5.786;2023-08-31T06:34:25;11.50;99.90
33803;DHT22;20110;53.120;5.786;2023-08-31T06:36:51;11.60;99.90
33803;DHT22;20110;53.120;5.786;2023-08-31T06:39:16;11.70;99.90
33803;DHT22;20110;53.120;5.786;2023-08-31T06:41:43;11.80;99.90
33803;DHT22;20110;53.120;5.786;2023-08-31T06:44:09;11.90;99.90
33803;DHT22;20110;53.120;5.786;2023-08-31T06:46:35;12.00;99.90
33803;DHT22;20110;53.120;5.786;2023-08-31T06:49:04;12.10;99.90
33803;DHT22;20110;53.120;5.786;2023-08-31T06:51:31;12.20;99.90
33803;DHT22;20110;53.120;5.786;2023-08-31T06:53:58;12.30;99.90
33803;DHT22;20110;53.120;5.786;2023-08-31T06:56:32;12.40;99.90
33803;DHT22;20110;53.120;5.786;2023-08-31T06:59:02;12.50;99.90
33803;DHT22;20110;53.120;5.786;2023-08-31T07:01:28;12.60;99.90
33803;DHT22;20110;53.120;5.786;2023-08-31T07:03:55;12.70;99.90
33803;DHT22;20110;53.120;5.786;2023-08-31T07:06:21;12.80;99.90
33803;DHT22;20110;53.120;5.786;2023-08-31T07:08:47;12.90;99.90
33803;DHT22;20110;53.120;5.786;2023-08-31T07:11:14;13.00;99.90
33803;DHT22;20110;53.120;5.786;2023-08-31T07:13:41;13.10;99.90
33803;DHT22;20110;53.120;5.786;2023-08-31T07:16:07;13.10;99.90
33803;DHT22;20110;53.120;5.786;2023-08-31T07:18:33;13.20;99.90
33803;DHT22;20110;53.120;5.786;2023-08-31T07:20:59;13.30;99.90
33803;DHT22;20110;53.120;5.786;2023-08-31T07:23:25;13.30;99.90
33803;DHT22;20110;53.120;5.786;2023-08-31T07:25:50;13.40;99.90
33803;DHT22;20110;53.120;5.786;2023-08-31T07:28:16;13.50;99.90
33803;DHT22;20110;53.120;5.786;2023-08-31T07:30:43;13.60;99.90
33803;DHT22;20110;53.120;5.786;2023-08-31T07:33:09;13.70;99.90
33803;DHT22;20110;53.120;5.786;2023-08-31T07:35:35;13.80;99.90
33803;DHT22;20110;53.120;5.786;2023-08-31T07:38:01;14.00;99.90
33803;DHT22;20110;53.120;5.786;2023-08-31T07:40:27;14.10;99.90
33803;DHT22;20110;53.120;5.786;2023-08-31T07:42:52;14.30;99.90
33803;DHT22;20110;53.120;5.786;2023-08-31T07:45:18;14.50;99.90
33803;DHT22;20110;53.120;5.786;2023-08-31T07:47:44;14.60;99.90
33803;DHT22;20110;53.120;5.786;2023-08-31T07:50:10;14.50;99.90
33803;DHT22;20110;53.120;5.786;2023-08-31T07:52:37;14.40;8.90
33803;DHT22;20110;53.120;5.786;2023-08-31T07:55:04;14.30;1.00
33803;DHT22;20110;53.120;5.786;2023-08-31T07:57:30;14.10;1.00
33803;DHT22;20110;53.120;5.786;2023-08-31T07:59:55;13.90;99.90
33803;DHT22;20110;53.120;5.786;2023-08-31T08:02:21;13.90;99.90
33803;DHT22;20110;53.120;5.786;2023-08-31T08:04:47;13.90;99.90
33803;DHT22;20110;53.120;5.786;2023-08-31T08:07:13;13.90;99.90
33803;DHT22;20110;53.120;5.786;2023-08-31T08:09:39;13.80;99.90
33803;DHT22;20110;53.120;5.786;2023-08-31T08:12:05;13.70;99.90
33803;DHT22;20110;53.120;5.786;2023-08-31T08:14:32;13.50;99.90
33803;DHT22;20110;53.120;5.786;2023-08-31T08:16:58;13.40;99.90
33803;DHT22;20110;53.120;5.786;2023-08-31T08:19:24;13.40;99.90
33803;DHT22;20110;53.120;5.786;2023-08-31T08:21:50;13.50;99.90
33803;DHT22;20110;53.120;5.786;2023-08-31T08:24:17;13.70;99.90
33803;DHT22;20110;53.120;5.786;2023-08-31T08:26:43;13.70;99.90
33803;DHT22;20110;53.120;5.786;2023-08-31T08:29:08;13.90;99.90
33803;DHT22;20110;53.120;5.786;2023-08-31T08:31:34;14.20;99.90
33803;DHT22;20110;53.120;5.786;2023-08-31T08:34:00;14.50;99.90
33803;DHT22;20110;53.120;5.786;2023-08-31T08:36:26;14.70;99.90
33803;DHT22;20110;53.120;5.786;2023-08-31T08:38:52;14.90;99.90
33803;DHT22;20110;53.120;5.786;2023-08-31T08:41:23;15.10;99.90
33803;DHT22;20110;53.120;5.786;2023-08-31T08:43:50;15.10;99.90
33803;DHT22;20110;53.120;5.786;2023-08-31T08:46:17;15.00;99.90
33803;DHT22;20110;53.120;5.786;2023-08-31T08:48:44;14.90;1.00
33803;DHT22;20110;53.120;5.786;2023-08-31T08:51:13;14.80;99.90
33803;DHT22;20110;53.120;5.786;2023-08-31T08:53:43;14.40;99.90
33803;DHT22;20110;53.120;5.786;2023-08-31T08:56:09;14.40;99.90
33803;DHT22;20110;53.120;5.786;2023-08-31T08:58:35;14.50;99.90
33803;DHT22;20110;53.120;5.786;2023-08-31T09:01:02;14.60;99.90
33803;DHT22;20110;53.120;5.786;2023-08-31T09:03:32;14.70;1.00
33803;DHT22;20110;53.120;5.786;2023-08-31T09:05:59;15.00;99.90
33803;DHT22;20110;53.120;5.786;2023-08-31T09:08:28;15.20;99.90
33803;DHT22;20110;53.120;5.786;2023-08-31T09:10:57;15.30;99.90
33803;DHT22;20110;53.120;5.786;2023-08-31T09:13:27;15.40;99.90
33803;DHT22;20110;53.120;5.786;2023-08-31T09:15:57;15.30;99.90
33803;DHT22;20110;53.120;5.786;2023-08-31T09:18:27;15.20;99.90
33803;DHT22;20110;53.120;5.786;2023-08-31T09:20:54;15.30;99.90
33803;DHT22;20110;53.120;5.786;2023-08-31T09:23:25;15.40;99.90
33803;DHT22;20110;53.120;5.786;2023-08-31T09:25:53;15.70;99.90
33803;DHT22;20110;53.120;5.786;2023-08-31T09:28:21;15.60;99.90
33803;DHT22;20110;53.120;5.786;2023-08-31T09:30:49;15.70;99.90
33803;DHT22;20110;53.120;5.786;2023-08-31T09:33:18;15.80;99.90
33803;DHT22;20110;53.120;5.786;2023-08-31T09:35:57;16.10;99.90
33803;DHT22;20110;53.120;5.786;2023-08-31T09:38:26;16.30;1.00
33803;DHT22;20110;53.120;5.786;2023-08-31T09:41:06;16.80;1.00
33803;DHT22;20110;53.120;5.786;2023-08-31T09:43:32;16.80;1.00
33803;DHT22;20110;53.120;5.786;2023-08-31T09:45:59;16.10;99.90
33803;DHT22;20110;53.120;5.786;2023-08-31T09:48:29;15.30;98.00
33803;DHT22;20110;53.120;5.786;2023-08-31T09:50:56;14.80;99.90
33803;DHT22;20110;53.120;5.786;2023-08-31T09:53:24;14.50;1.00
33803;DHT22;20110;53.120;5.786;2023-08-31T09:55:51;14.60;99.90
33803;DHT22;20110;53.120;5.786;2023-08-31T09:58:19;15.00;1.00
33803;DHT22;20110;53.120;5.786;2023-08-31T10:00:46;15.80;99.90
33803;DHT22;20110;53.120;5.786;2023-08-31T10:03:14;16.50;1.00
33803;DHT22;20110;53.120;5.786;2023-08-31T10:05:44;17.10;99.90
33803;DHT22;20110;53.120;5.786;2023-08-31T10:08:11;17.60;99.90
33803;DHT22;20110;53.120;5.786;2023-08-31T10:10:38;17.40;99.90
33803;DHT22;20110;53.120;5.786;2023-08-31T10:13:05;16.60;1.00
33803;DHT22;20110;53.120;5.786;2023-08-31T10:15:35;15.90;99.90
33803;DHT22;20110;53.120;5.786;2023-08-31T10:18:03;15.60;1.00
33803;DHT22;20110;53.120;5.786;2023-08-31T10:20:30;15.40;1.00
33803;DHT22;20110;53.120;5.786;2023-08-31T10:23:07;15.80;75.30
33803;DHT22;20110;53.120;5.786;2023-08-31T10:25:59;16.70;53.60
33803;DHT22;20110;53.120;5.786;2023-08-31T10:28:27;17.60;99.90
33803;DHT22;20110;53.120;5.786;2023-08-31T10:31:14;18.00;99.90
33803;DHT22;20110;53.120;5.786;2023-08-31T10:33:46;17.90;99.90
33803;DHT22;20110;53.120;5.786;2023-08-31T10:36:20;17.50;99.90
33803;DHT22;20110;53.120;5.786;2023-08-31T10:38:47;17.90;99.90
33803;DHT22;20110;53.120;5.786;2023-08-31T10:41:35;18.20;99.90
33803;DHT22;20110;53.120;5.786;2023-08-31T10:44:02;18.40;99.90
33803;DHT22;20110;53.120;5.786;2023-08-31T10:46:44;18.00;99.90
33803;DHT22;20110;53.120;5.786;2023-08-31T10:51:38;18.40;1.00
33803;DHT22;20110;53.120;5.786;2023-08-31T10:54:12;18.70;1.00
33803;DHT22;20110;53.120;5.786;2023-08-31T10:59:18;19.10;99.90
33803;DHT22;20110;53.120;5.786;2023-08-31T11:02:27;19.30;1.00
33803;DHT22;20110;53.120;5.786;2023-08-31T11:05:17;19.40;57.90
33803;DHT22;20110;53.120;5.786;2023-08-31T11:07:50;19.10;1.00
33803;DHT22;20110;53.120;5.786;2023-08-31T11:10:22;18.30;1.00
33803;DHT22;20110;53.120;5.786;2023-08-31T11:12:56;17.90;1.00
33803;DHT22;20110;53.120;5.786;2023-08-31T11:15:27;18.50;1.00
33803;DHT22;20110;53.120;5.786;2023-08-31T11:17:55;19.40;1.00
33803;DHT22;20110;53.120;5.786;2023-08-31T11:20:23;19.70;99.90
33803;DHT22;20110;53.120;5.786;2023-08-31T11:22:53;19.60;1.00
33803;DHT22;20110;53.120;5.786;2023-08-31T11:25:20;19.00;99.90
33803;DHT22;20110;53.120;5.786;2023-08-31T11:28:00;18.00;1.00
33803;DHT22;20110;53.120;5.786;2023-08-31T11:30:30;15.90;24.60
33803;DHT22;20110;53.120;5.786;2023-08-31T11:32:57;14.90;99.90
33803;DHT22;20110;53.120;5.786;2023-08-31T11:35:38;14.40;99.90
33803;DHT22;20110;53.120;5.786;2023-08-31T11:38:12;14.10;99.90
33803;DHT22;20110;53.120;5.786;2023-08-31T11:40:38;13.90;99.90
33803;DHT22;20110;53.120;5.786;2023-08-31T11:43:05;13.80;99.90
33803;DHT22;20110;53.120;5.786;2023-08-31T11:45:32;13.70;99.90
33803;DHT22;20110;53.120;5.786;2023-08-31T11:47:58;13.90;99.90
33803;DHT22;20110;53.120;5.786;2023-08-31T11:50:25;14.10;99.90
33803;DHT22;20110;53.120;5.786;2023-08-31T11:52:51;14.50;99.90
33803;DHT22;20110;53.120;5.786;2023-08-31T11:55:19;15.60;99.90
33803;DHT22;20110;53.120;5.786;2023-08-31T11:57:53;15.70;99.90
33803;DHT22;20110;53.120;5.786;2023-08-31T12:00:21;15.80;99.90
33803;DHT22;20110;53.120;5.786;2023-08-31T12:02:58;16.30;78.40
33803;DHT22;20110;53.120;5.786;2023-08-31T12:05:27;16.30;99.90
33803;DHT22;20110;53.120;5.786;2023-08-31T12:07:54;16.30;1.00
33803;DHT22;20110;53.120;5.786;2023-08-31T12:10:20;16.90;95.60
33803;DHT22;20110;53.120;5.786;2023-08-31T12:12:46;16.80;1.00
33803;DHT22;20110;53.120;5.786;2023-08-31T12:15:13;15.50;99.90
33803;DHT22;20110;53.120;5.786;2023-08-31T12:17:39;14.60;99.90
33803;DHT22;20110;53.120;5.786;2023-08-31T12:20:06;13.90;99.90
33803;DHT22;20110;53.120;5.786;2023-08-31T12:22:32;13.60;1.00
33803;DHT22;20110;53.120;5.786;2023-08-31T12:24:58;13.80;99.90
33803;DHT22;20110;53.120;5.786;2023-08-31T12:27:24;14.50;99.90
33803;DHT22;20110;53.120;5.786;2023-08-31T12:29:51;15.30;99.90
33803;DHT22;20110;53.120;5.786;2023-08-31T12:32:17;15.60;99.90
33803;DHT22;20110;53.120;5.786;2023-08-31T12:34:45;15.80;1.00
33803;DHT22;20110;53.120;5.786;2023-08-31T12:37:11;15.90;99.90
33803;DHT22;20110;53.120;5.786;2023-08-31T12:39:37;15.80;99.90
33803;DHT22;20110;53.120;5.786;2023-08-31T12:42:04;15.90;99.90
33803;DHT22;20110;53.120;5.786;2023-08-31T12:44:31;16.20;99.90
33803;DHT22;20110;53.120;5.786;2023-08-31T12:46:57;16.40;1.00
33803;DHT22;20110;53.120;5.786;2023-08-31T12:49:23;16.90;99.90
33803;DHT22;20110;53.120;5.786;2023-08-31T12:51:49;17.20;99.90
33803;DHT22;20110;53.120;5.786;2023-08-31T12:54:16;17.30;63.30
33803;DHT22;20110;53.120;5.786;2023-08-31T12:56:42;17.30;1.00
33803;DHT22;20110;53.120;5.786;2023-08-31T12:59:09;17.70;1.00
33803;DHT22;20110;53.120;5.786;2023-08-31T13:01:34;18.00;1.00
33803;DHT22;20110;53.120;5.786;2023-08-31T13:04:01;17.70;99.90
33803;DHT22;20110;53.120;5.786;2023-08-31T13:06:27;17.50;99.90
33803;DHT22;20110;53.120;5.786;2023-08-31T13:08:54;17.50;99.90
33803;DHT22;20110;53.120;5.786;2023-08-31T13:11:19;17.60;99.90
33803;DHT22;20110;53.120;5.786;2023-08-31T13:13:49;17.40;99.90
33803;DHT22;20110;53.120;5.786;2023-08-31T13:16:18;17.20;1.00
33803;DHT22;20110;53.120;5.786;2023-08-31T13:18:45;17.30;99.90
33803;DHT22;20110;53.120;5.786;2023-08-31T13:21:10;17.20;98.10
33803;DHT22;20110;53.120;5.786;2023-08-31T13:23:36;17.00;99.90
33803;DHT22;20110;53.120;5.786;2023-08-31T13:26:02;16.80;99.90
33803;DHT22;20110;53.120;5.786;2023-08-31T13:28:28;16.80;19.20
33803;DHT22;20110;53.120;5.786;2023-08-31T13:30:57;17.00;1.00
33803;DHT22;20110;53.120;5.786;2023-08-31T13:33:27;17.30;99.90
33803;DHT22;20110;53.120;5.786;2023-08-31T13:35:59;17.50;99.90
33803;DHT22;20110;53.120;5.786;2023-08-31T13:38:26;17.60;99.90
33803;DHT22;20110;53.120;5.786;2023-08-31T13:40:56;17.60;99.90
33803;DHT22;20110;53.120;5.786;2023-08-31T13:43:22;17.70;99.90
33803;DHT22;20110;53.120;5.786;2023-08-31T13:45:49;17.60;99.90
33803;DHT22;20110;53.120;5.786;2023-08-31T13:48:15;17.30;99.90
33803;DHT22;20110;53.120;5.786;2023-08-31T13:50:40;17.10;99.90
33803;DHT22;20110;53.120;5.786;2023-08-31T13:53:06;17.10;99.90
33803;DHT22;20110;53.120;5.786;2023-08-31T13:55:32;17.30;99.90
33803;DHT22;20110;53.120;5.786;2023-08-31T13:58:07;17.30;1.00
33803;DHT22;20110;53.120;5.786;2023-08-31T14:00:34;17.40;1.00
33803;DHT22;20110;53.120;5.786;2023-08-31T14:03:01;17.40;1.00
33803;DHT22;20110;53.120;5.786;2023-08-31T14:05:30;17.50;99.90
33803;DHT22;20110;53.120;5.786;2023-08-31T14:07:56;17.50;99.90
33803;DHT22;20110;53.120;5.786;2023-08-31T14:10:24;17.50;99.90
33803;DHT22;20110;53.120;5.786;2023-08-31T14:12:50;17.40;99.90
33803;DHT22;20110;53.120;5.786;2023-08-31T14:15:16;17.40;99.90
33803;DHT22;20110;53.120;5.786;2023-08-31T14:17:42;17.60;99.90
33803;DHT22;20110;53.120;5.786;2023-08-31T14:20:08;17.60;99.90
33803;DHT22;20110;53.120;5.786;2023-08-31T14:22:38;17.50;99.90
33803;DHT22;20110;53.120;5.786;2023-08-31T14:25:10;17.70;1.00
33803;DHT22;20110;53.120;5.786;2023-08-31T14:27:37;17.70;1.00
33803;DHT22;20110;53.120;5.786;2023-08-31T14:30:04;17.50;99.90
33803;DHT22;20110;53.120;5.786;2023-08-31T14:32:31;17.30;1.00
33803;DHT22;20110;53.120;5.786;2023-08-31T14:34:57;17.20;1.00
33803;DHT22;20110;53.120;5.786;2023-08-31T14:37:23;17.20;99.90
33803;DHT22;20110;53.120;5.786;2023-08-31T14:39:50;17.40;1.00
33803;DHT22;20110;53.120;5.786;2023-08-31T14:42:16;17.50;99.90
33803;DHT22;20110;53.120;5.786;2023-08-31T14:44:45;17.50;1.00
33803;DHT22;20110;53.120;5.786;2023-08-31T14:47:10;17.70;1.00
33803;DHT22;20110;53.120;5.786;2023-08-31T14:49:39;17.70;99.90
33803;DHT22;20110;53.120;5.786;2023-08-31T14:52:06;17.60;99.90
33803;DHT22;20110;53.120;5.786;2023-08-31T14:54:34;17.60;99.90
33803;DHT22;20110;53.120;5.786;2023-08-31T14:57:01;17.90;1.00
33803;DHT22;20110;53.120;5.786;2023-08-31T14:59:30;17.90;1.00
33803;DHT22;20110;53.120;5.786;2023-08-31T15:01:56;17.90;99.90
33803;DHT22;20110;53.120;5.786;2023-08-31T15:04:21;17.60;99.90
33803;DHT22;20110;53.120;5.786;2023-08-31T15:06:48;17.70;1.00
33803;DHT22;20110;53.120;5.786;2023-08-31T15:09:14;17.70;1.00
33803;DHT22;20110;53.120;5.786;2023-08-31T15:11:40;17.60;1.00
33803;DHT22;20110;53.120;5.786;2023-08-31T15:14:06;17.40;1.00
33803;DHT22;20110;53.120;5.786;2023-08-31T15:16:33;17.30;1.00
33803;DHT22;20110;53.120;5.786;2023-08-31T15:19:00;17.20;1.00
33803;DHT22;20110;53.120;5.786;2023-08-31T15:21:26;17.50;98.40
33803;DHT22;20110;53.120;5.786;2023-08-31T15:23:52;17.50;1.00
33803;DHT22;20110;53.120;5.786;2023-08-31T15:26:18;17.30;99.50
33803;DHT22;20110;53.120;5.786;2023-08-31T15:28:44;17.10;99.90
33803;DHT22;20110;53.120;5.786;2023-08-31T15:31:14;17.10;99.90
33803;DHT22;20110;53.120;5.786;2023-08-31T15:33:40;17.10;99.90
33803;DHT22;20110;53.120;5.786;2023-08-31T15:36:07;17.10;91.50
33803;DHT22;20110;53.120;5.786;2023-08-31T15:38:34;17.10;68.80
33803;DHT22;20110;53.120;5.786;2023-08-31T15:41:02;17.00;1.00
33803;DHT22;20110;53.120;5.786;2023-08-31T15:43:33;17.20;93.30